Time;durP1;ratioP1;P1;durP2;ratioP2;P2;SDS_P1;SDS_P2;PMS_P1;PMS_P2;Temp;Humidity;BMP_temperature;BMP_pressure;BME280_temperature;BME280_humidity;BME280_pressure;Samples;Min_cycle;Max_cycle;Signal;HPM_P1;HPM_P2
2023/08/08 00:02:15;;;;;;;3.47;1.63;;;12.00;99.90;;;;;;5072085;28;20411;-66
2023/08/08 00:04:41;;;;;;;2.33;1.10;;;11.90;99.90;;;;;;5091233;28;20234;-66
2023/08/08 00:07:06;;;;;;;1.80;0.80;;;11.90;99.90;;;;;;5089079;28;20207;-66
2023/08/08 00:09:32;;;;;;;2.13;1.20;;;11.90;99.90;;;;;;5100360;28;20694;-65
2023/08/08 00:11:58;;;;;;;1.90;0.77;;;11.90;99.90;;;;;;5086267;28;20192;-65
2023/08/08 00:14:24;;;;;;;3.30;1.67;;;11.90;99.90;;;;;;5088298;28;20180;-65
2023/08/08 00:16:50;;;;;;;2.60;1.30;;;12.10;99.90;;;;;;5086193;28;20204;-66
2023/08/08 00:19:15;;;;;;;1.90;1.00;;;12.10;99.90;;;;;;5077647;28;20454;-65
2023/08/08 00:21:41;;;;;;;2.10;1.00;;;12.20;99.90;;;;;;5079383;28;20313;-65
2023/08/08 00:24:07;;;;;;;1.50;0.70;;;12.30;99.90;;;;;;5077272;28;20188;-66
2023/08/08 00:26:33;;;;;;;2.37;1.23;;;12.40;99.90;;;;;;5094301;28;20274;-66
2023/08/08 00:28:58;;;;;;;3.40;1.23;;;12.50;99.90;;;;;;5098570;28;20231;-66
2023/08/08 00:31:24;;;;;;;1.70;0.90;;;12.60;99.90;;;;;;5097249;28;20198;-66
2023/08/08 00:33:49;;;;;;;4.13;1.00;;;12.70;99.90;;;;;;5083459;28;20212;-66
2023/08/08 00:36:15;;;;;;;1.43;0.73;;;12.70;99.90;;;;;;5071497;28;20220;-66
2023/08/08 00:38:41;;;;;;;2.67;0.70;;;12.70;99.90;;;;;;5071466;28;20188;-66
2023/08/08 00:41:06;;;;;;;2.57;1.20;;;12.70;99.90;;;;;;5082177;28;20218;-66
2023/08/08 00:43:32;;;;;;;2.50;1.27;;;12.70;99.90;;;;;;5087250;28;20272;-66
2023/08/08 00:45:57;;;;;;;3.10;1.20;;;12.60;99.90;;;;;;5095542;28;20180;-66
2023/08/08 00:48:24;;;;;;;1.77;0.90;;;12.70;99.90;;;;;;5093759;28;20195;-66
2023/08/08 00:50:50;;;;;;;1.40;0.80;;;12.70;99.90;;;;;;5076727;28;20211;-66
2023/08/08 00:53:18;;;;;;;2.40;1.30;;;12.70;99.90;;;;;;5070803;28;20457;-65
2023/08/08 00:55:43;;;;;;;1.80;0.73;;;12.70;99.90;;;;;;5082883;28;21147;-66
2023/08/08 00:58:10;;;;;;;3.00;0.97;;;12.70;99.90;;;;;;5084354;28;20419;-66
2023/08/08 01:00:36;;;;;;;2.13;1.00;;;12.70;99.90;;;;;;5090009;28;20207;-66
2023/08/08 01:03:02;;;;;;;3.80;1.23;;;12.60;99.90;;;;;;5076092;28;20441;-66
2023/08/08 01:05:35;;;;;;;2.23;0.87;;;12.60;99.90;;;;;;5071883;28;20251;-66
2023/08/08 01:08:05;;;;;;;2.90;1.20;;;12.60;99.90;;;;;;5078433;28;20454;-66
2023/08/08 01:10:39;;;;;;;2.50;0.90;;;12.60;99.90;;;;;;5083772;28;20434;-66
2023/08/08 01:13:19;;;;;;;2.63;1.30;;;12.50;99.90;;;;;;5094758;28;20463;-66
2023/08/08 01:15:48;;;;;;;4.03;1.53;;;12.50;99.90;;;;;;5099876;28;20405;-65
2023/08/08 01:18:14;;;;;;;1.67;0.80;;;12.50;99.90;;;;;;5092083;28;20406;-65
2023/08/08 01:20:42;;;;;;;2.03;0.87;;;12.40;99.90;;;;;;5090168;28;20912;-66
2023/08/08 01:23:36;;;;;;;1.67;0.93;;;12.40;99.90;;;;;;5076346;28;20476;-66
2023/08/08 01:26:03;;;;;;;2.00;0.90;;;12.40;99.90;;;;;;5076911;28;20418;-64
2023/08/08 01:28:28;;;;;;;1.60;1.00;;;12.40;99.90;;;;;;5089888;28;20465;-64
2023/08/08 01:30:54;;;;;;;1.50;0.67;;;12.40;99.90;;;;;;5086323;28;20909;-64
2023/08/08 01:33:20;;;;;;;4.13;1.33;;;12.40;99.90;;;;;;5070466;28;20206;-64
2023/08/08 01:35:54;;;;;;;2.20;0.90;;;12.40;99.90;;;;;;5090249;28;20220;-64
2023/08/08 01:38:34;;;;;;;1.30;0.70;;;12.40;99.90;;;;;;5078306;28;20192;-64
2023/08/08 01:41:01;;;;;;;1.63;0.87;;;12.30;99.90;;;;;;5077485;28;21053;-64
2023/08/08 01:43:28;;;;;;;2.60;1.40;;;12.30;99.90;;;;;;5075859;28;20893;-65
2023/08/08 01:45:54;;;;;;;1.97;1.10;;;12.30;99.90;;;;;;5073821;28;20454;-64
2023/08/08 01:48:19;;;;;;;2.40;1.27;;;12.30;99.90;;;;;;5087960;28;20470;-64
2023/08/08 01:50:45;;;;;;;2.40;1.10;;;12.20;99.90;;;;;;5086659;28;20465;-64
2023/08/08 01:53:11;;;;;;;2.07;0.80;;;12.20;99.90;;;;;;5086638;28;20172;-64
2023/08/08 01:55:37;;;;;;;1.70;0.80;;;12.20;99.90;;;;;;5074005;28;20177;-64
2023/08/08 01:58:03;;;;;;;2.40;1.20;;;12.30;99.90;;;;;;5087578;28;20185;-64
2023/08/08 02:00:28;;;;;;;1.83;1.07;;;12.30;99.90;;;;;;5086526;28;20484;-66
2023/08/08 02:02:54;;;;;;;5.60;1.27;;;12.20;99.90;;;;;;5086363;28;20176;-66
2023/08/08 02:05:20;;;;;;;1.50;0.70;;;12.20;99.90;;;;;;5097017;28;20263;-66
2023/08/08 02:07:45;;;;;;;2.00;1.00;;;12.10;99.90;;;;;;5099765;28;20183;-63
2023/08/08 02:10:11;;;;;;;3.53;1.23;;;12.10;99.90;;;;;;5099535;28;20634;-64
2023/08/08 02:12:36;;;;;;;4.87;1.53;;;12.10;99.90;;;;;;5088410;28;20259;-64
2023/08/08 02:15:04;;;;;;;4.50;0.97;;;12.10;99.90;;;;;;5088879;28;20273;-64
2023/08/08 02:17:29;;;;;;;1.77;0.70;;;12.10;99.90;;;;;;5101479;28;20548;-64
2023/08/08 02:19:55;;;;;;;2.80;1.20;;;12.20;99.90;;;;;;5099250;28;20416;-64
2023/08/08 02:22:22;;;;;;;2.07;1.03;;;12.00;99.90;;;;;;5098583;28;20207;-64
2023/08/08 02:24:48;;;;;;;2.60;0.83;;;12.00;99.90;;;;;;5086613;28;20251;-64
2023/08/08 02:27:14;;;;;;;2.20;0.80;;;12.00;99.90;;;;;;5085569;28;21263;-64
2023/08/08 02:29:39;;;;;;;2.53;1.30;;;12.00;99.90;;;;;;5072815;28;20697;-64
2023/08/08 02:32:05;;;;;;;1.73;0.87;;;12.10;99.90;;;;;;5085740;28;20177;-64
2023/08/08 02:34:31;;;;;;;1.80;0.90;;;12.10;99.90;;;;;;5077882;28;20185;-64
2023/08/08 02:36:56;;;;;;;1.80;0.77;;;12.20;99.90;;;;;;5072934;28;20200;-64
2023/08/08 02:39:22;;;;;;;2.60;1.13;;;12.20;99.90;;;;;;5073043;28;20734;-64
2023/08/08 02:41:48;;;;;;;2.50;1.37;;;12.20;99.90;;;;;;5073189;28;20185;-64
2023/08/08 02:44:13;;;;;;;2.10;0.97;;;12.20;99.90;;;;;;5077384;28;20176;-64
2023/08/08 02:46:39;;;;;;;3.30;0.90;;;12.20;99.90;;;;;;5080666;28;20185;-64
2023/08/08 02:49:05;;;;;;;1.80;1.00;;;12.20;99.90;;;;;;5072848;28;20201;-64
2023/08/08 02:51:30;;;;;;;2.13;0.90;;;12.20;99.90;;;;;;5072715;28;20177;-64
2023/08/08 02:53:56;;;;;;;1.40;0.80;;;12.10;99.90;;;;;;5086037;28;20181;-64
2023/08/08 02:56:21;;;;;;;2.30;1.27;;;12.00;99.90;;;;;;5072766;28;20185;-64
2023/08/08 02:58:47;;;;;;;2.10;1.00;;;12.00;99.90;;;;;;5090510;28;20180;-64
2023/08/08 03:01:16;;;;;;;2.17;0.90;;;11.90;99.90;;;;;;5080783;28;20721;-64
2023/08/08 03:03:42;;;;;;;2.27;1.10;;;11.90;99.90;;;;;;5077064;28;20188;-64
2023/08/08 03:06:08;;;;;;;2.40;1.10;;;11.80;99.90;;;;;;5085950;28;20430;-64
2023/08/08 03:08:34;;;;;;;2.23;1.00;;;11.80;99.90;;;;;;5095472;28;20459;-64
2023/08/08 03:10:59;;;;;;;2.87;1.10;;;11.80;99.90;;;;;;5108935;28;20426;-64
2023/08/08 03:13:25;;;;;;;1.50;0.63;;;11.70;99.90;;;;;;5075111;28;20464;-64
2023/08/08 03:15:50;;;;;;;2.03;1.00;;;11.80;99.90;;;;;;5100681;28;20211;-64
2023/08/08 03:18:16;;;;;;;7.63;1.93;;;11.80;99.90;;;;;;5072805;28;20181;-64
2023/08/08 03:20:42;;;;;;;4.77;1.07;;;11.80;99.90;;;;;;5072323;28;20260;-64
2023/08/08 03:23:07;;;;;;;1.80;0.80;;;11.90;99.90;;;;;;5091313;28;20526;-64
2023/08/08 03:25:33;;;;;;;1.90;0.93;;;11.90;99.90;;;;;;5086859;28;20232;-64
2023/08/08 03:27:58;;;;;;;1.73;0.80;;;12.00;99.90;;;;;;5102575;28;20674;-64
2023/08/08 03:30:24;;;;;;;1.50;0.90;;;12.00;99.90;;;;;;5095033;28;20228;-64
2023/08/08 03:32:50;;;;;;;2.07;1.00;;;12.10;99.90;;;;;;5094204;28;20177;-63
2023/08/08 03:35:15;;;;;;;2.73;1.13;;;12.20;99.90;;;;;;5088571;28;20272;-64
2023/08/08 03:37:42;;;;;;;2.50;0.90;;;12.20;99.90;;;;;;5072846;28;20524;-64
2023/08/08 03:40:08;;;;;;;1.77;1.00;;;12.20;99.90;;;;;;5072347;28;20181;-64
2023/08/08 03:42:34;;;;;;;2.70;0.80;;;12.20;99.90;;;;;;5090756;28;20422;-64
2023/08/08 03:44:59;;;;;;;2.10;1.00;;;12.20;99.90;;;;;;5078948;28;20483;-64
2023/08/08 03:47:25;;;;;;;2.80;1.23;;;12.20;99.90;;;;;;5077213;28;20508;-64
2023/08/08 03:49:54;;;;;;;12.80;1.17;;;12.40;99.90;;;;;;5079669;28;20216;-64
2023/08/08 03:52:20;;;;;;;2.90;1.10;;;12.30;99.90;;;;;;5077266;28;20794;-64
2023/08/08 03:54:46;;;;;;;1.40;0.80;;;12.40;99.90;;;;;;5071342;28;20423;-64
2023/08/08 03:57:12;;;;;;;1.50;0.73;;;12.40;99.90;;;;;;5077167;28;20263;-64
2023/08/08 03:59:38;;;;;;;3.40;1.00;;;12.30;99.90;;;;;;5091560;28;20426;-64
2023/08/08 04:02:04;;;;;;;1.80;1.00;;;12.40;99.90;;;;;;5090108;28;20553;-64
2023/08/08 04:04:29;;;;;;;2.60;1.57;;;12.40;99.90;;;;;;5094497;28;20329;-64
2023/08/08 04:06:55;;;;;;;4.70;1.80;;;12.40;99.90;;;;;;5096064;28;20180;-63
2023/08/08 04:09:21;;;;;;;3.63;1.70;;;12.50;99.90;;;;;;5082933;28;20728;-64
2023/08/08 04:11:46;;;;;;;2.50;1.27;;;12.40;99.90;;;;;;5080834;28;20651;-64
2023/08/08 04:14:12;;;;;;;1.70;0.90;;;12.40;99.90;;;;;;5074505;28;20173;-64
2023/08/08 04:16:39;;;;;;;1.80;1.03;;;12.30;99.90;;;;;;5080307;28;20215;-64
2023/08/08 04:19:04;;;;;;;2.07;0.97;;;12.20;99.90;;;;;;5071196;28;20231;-66
2023/08/08 04:21:32;;;;;;;1.60;0.70;;;12.20;99.90;;;;;;5083456;28;20937;-66
2023/08/08 04:23:58;;;;;;;4.60;1.10;;;12.10;99.90;;;;;;5083295;28;20212;-66
2023/08/08 04:26:23;;;;;;;3.30;1.00;;;11.90;99.90;;;;;;5089844;28;20422;-66
2023/08/08 04:28:49;;;;;;;2.63;1.10;;;12.00;99.90;;;;;;5092585;28;20520;-66
2023/08/08 04:31:15;;;;;;;2.20;1.23;;;11.90;99.90;;;;;;5093842;28;20346;-66
2023/08/08 04:33:40;;;;;;;2.10;1.10;;;11.90;99.90;;;;;;5092979;28;20196;-66
2023/08/08 04:36:06;;;;;;;2.77;1.40;;;11.80;99.90;;;;;;5090429;28;20188;-66
2023/08/08 04:38:31;;;;;;;3.17;1.30;;;11.80;99.90;;;;;;5086528;28;20185;-66
2023/08/08 04:40:57;;;;;;;3.50;1.40;;;11.80;99.90;;;;;;5070887;28;20192;-66
2023/08/08 04:43:23;;;;;;;2.00;1.07;;;11.80;99.90;;;;;;5070041;28;20661;-66
2023/08/08 04:45:48;;;;;;;4.17;1.60;;;11.90;99.90;;;;;;5083588;28;20180;-66
2023/08/08 04:48:14;;;;;;;2.27;1.10;;;11.90;99.90;;;;;;5070778;28;20218;-66
2023/08/08 04:50:40;;;;;;;2.07;1.10;;;12.00;99.90;;;;;;5084203;28;20260;-66
2023/08/08 04:53:06;;;;;;;3.03;1.63;;;11.90;99.90;;;;;;5070632;28;20173;-66
2023/08/08 04:55:32;;;;;;;1.63;0.80;;;11.90;99.90;;;;;;5088553;28;20410;-66
2023/08/08 04:57:57;;;;;;;1.50;0.60;;;11.90;99.90;;;;;;5082063;28;20531;-66
2023/08/08 05:00:23;;;;;;;2.03;0.90;;;11.90;99.90;;;;;;5085152;28;20185;-66
2023/08/08 05:02:48;;;;;;;2.57;1.20;;;12.00;99.90;;;;;;5070663;28;20173;-66
2023/08/08 05:05:14;;;;;;;2.27;1.30;;;12.00;99.90;;;;;;5070122;28;20177;-66
2023/08/08 05:07:40;;;;;;;2.63;1.20;;;12.10;99.90;;;;;;5079085;28;20539;-66
2023/08/08 05:10:06;;;;;;;2.83;0.93;;;12.10;99.90;;;;;;5071841;28;20173;-66
2023/08/08 05:12:32;;;;;;;3.33;1.10;;;12.10;99.90;;;;;;5085707;28;20933;-66
2023/08/08 05:14:57;;;;;;;1.70;0.87;;;12.20;99.90;;;;;;5079640;28;20256;-65
2023/08/08 05:17:23;;;;;;;3.83;1.03;;;12.10;99.90;;;;;;5072490;28;20915;-66
2023/08/08 05:19:49;;;;;;;2.57;1.20;;;12.20;99.90;;;;;;5079021;28;20215;-66
2023/08/08 05:22:14;;;;;;;3.27;1.07;;;12.20;99.90;;;;;;5081837;28;20554;-66
2023/08/08 05:24:40;;;;;;;2.67;1.17;;;12.20;99.90;;;;;;5082493;28;20189;-66
2023/08/08 05:27:06;;;;;;;2.87;1.00;;;12.20;99.90;;;;;;5090975;28;20177;-66
2023/08/08 05:29:31;;;;;;;2.47;1.23;;;12.20;99.90;;;;;;5089794;28;20206;-66
2023/08/08 05:31:57;;;;;;;2.17;1.00;;;12.30;99.90;;;;;;5101395;28;20291;-66
2023/08/08 05:34:24;;;;;;;3.00;1.00;;;12.20;99.90;;;;;;5099935;28;20516;-66
2023/08/08 05:36:50;;;;;;;2.33;1.20;;;12.30;99.90;;;;;;5100078;28;20188;-66
2023/08/08 05:39:15;;;;;;;2.30;1.03;;;12.30;99.90;;;;;;5091706;28;20407;-66
2023/08/08 05:41:41;;;;;;;1.93;0.80;;;12.30;99.90;;;;;;5086108;28;20209;-66
2023/08/08 05:44:06;;;;;;;4.10;1.20;;;12.50;99.90;;;;;;5086923;28;20172;-66
2023/08/08 05:46:32;;;;;;;1.90;1.03;;;12.40;99.90;;;;;;5103825;28;20262;-66
2023/08/08 05:48:58;;;;;;;2.00;0.93;;;12.40;99.90;;;;;;5081635;28;20261;-66
2023/08/08 05:51:23;;;;;;;2.77;0.90;;;12.50;99.90;;;;;;5082252;28;20235;-66
2023/08/08 05:53:49;;;;;;;1.40;0.80;;;12.60;99.90;;;;;;5076239;28;20199;-66
2023/08/08 05:56:14;;;;;;;2.10;0.80;;;12.60;99.90;;;;;;5098354;28;20664;-66
2023/08/08 05:58:40;;;;;;;3.03;1.30;;;12.80;99.90;;;;;;5098568;28;20650;-66
2023/08/08 06:01:06;;;;;;;1.57;0.70;;;12.80;99.90;;;;;;5078906;28;20211;-66
2023/08/08 06:03:32;;;;;;;7.00;1.00;;;12.80;99.90;;;;;;5098441;28;20584;-66
2023/08/08 06:05:57;;;;;;;2.57;0.83;;;12.90;99.90;;;;;;5108122;28;20176;-66
2023/08/08 06:08:23;;;;;;;2.60;1.00;;;13.00;99.90;;;;;;5090659;28;20455;-65
2023/08/08 06:10:49;;;;;;;2.70;1.40;;;13.00;99.90;;;;;;5083154;28;20789;-65
2023/08/08 06:13:14;;;;;;;1.60;0.70;;;13.20;99.90;;;;;;5074396;28;20177;-65
2023/08/08 06:15:40;;;;;;;4.00;0.80;;;13.20;99.90;;;;;;5086750;28;20624;-65
2023/08/08 06:18:06;;;;;;;2.33;1.20;;;13.40;99.90;;;;;;5074465;28;20189;-65
2023/08/08 06:20:31;;;;;;;3.27;0.97;;;13.50;99.90;;;;;;5094547;28;20606;-65
2023/08/08 06:22:57;;;;;;;1.83;1.00;;;13.60;99.90;;;;;;5097526;28;20454;-65
2023/08/08 06:25:22;;;;;;;6.20;0.90;;;13.70;99.90;;;;;;5092375;28;20184;-65
2023/08/08 06:27:49;;;;;;;4.60;1.40;;;13.80;99.90;;;;;;5088845;28;20185;-65
2023/08/08 06:30:15;;;;;;;1.50;0.73;;;13.90;99.90;;;;;;5099259;28;20172;-65
2023/08/08 06:32:40;;;;;;;2.57;1.00;;;14.10;99.90;;;;;;5082360;28;20422;-65
2023/08/08 06:35:06;;;;;;;4.53;0.87;;;14.10;99.90;;;;;;5078864;28;20677;-65
2023/08/08 06:37:32;;;;;;;2.20;0.97;;;14.20;99.90;;;;;;5090325;28;20196;-65
2023/08/08 06:39:58;;;;;;;3.27;1.33;;;14.40;99.90;;;;;;5057021;28;20917;-65
2023/08/08 06:42:23;;;;;;;3.43;0.90;;;14.50;99.90;;;;;;5072363;28;20419;-65
2023/08/08 06:44:49;;;;;;;2.50;0.93;;;14.50;99.90;;;;;;5086794;28;20234;-65
2023/08/08 06:47:15;;;;;;;2.33;0.97;;;14.60;99.90;;;;;;5093189;28;20619;-65
2023/08/08 06:49:40;;;;;;;2.63;1.00;;;14.70;99.90;;;;;;5082926;28;20205;-65
2023/08/08 06:52:06;;;;;;;2.23;1.00;;;14.80;99.90;;;;;;5086314;28;20177;-65
2023/08/08 06:54:32;;;;;;;2.30;0.90;;;14.80;99.90;;;;;;5093418;28;20184;-65
2023/08/08 06:56:58;;;;;;;1.50;0.80;;;15.00;99.90;;;;;;5100054;28;20195;-65
2023/08/08 06:59:24;;;;;;;1.40;0.60;;;15.20;99.90;;;;;;5105133;28;20778;-66
2023/08/08 07:01:50;;;;;;;1.80;0.80;;;15.30;99.90;;;;;;5092189;28;20234;-65
2023/08/08 07:04:17;;;;;;;1.50;0.77;;;15.50;99.90;;;;;;5089557;28;20216;-65
2023/08/08 07:06:44;;;;;;;2.33;1.07;;;15.80;99.90;;;;;;5091219;28;20445;-65
2023/08/08 07:09:10;;;;;;;1.60;0.80;;;16.10;99.90;;;;;;5106352;28;20457;-65
2023/08/08 07:11:36;;;;;;;1.70;0.90;;;16.30;99.90;;;;;;5102217;28;20423;-66
2023/08/08 07:14:02;;;;;;;1.40;0.60;;;16.50;99.90;;;;;;5078485;28;20531;-66
2023/08/08 07:16:28;;;;;;;1.93;0.73;;;16.70;99.90;;;;;;5077955;28;20530;-65
2023/08/08 07:18:53;;;;;;;1.90;0.77;;;16.80;99.90;;;;;;5073023;28;20192;-65
2023/08/08 07:21:20;;;;;;;3.40;1.47;;;16.90;99.90;;;;;;5072884;28;20212;-66
2023/08/08 07:23:45;;;;;;;3.00;1.00;;;17.10;99.90;;;;;;5076118;28;20184;-65
2023/08/08 07:26:11;;;;;;;1.40;0.60;;;17.20;99.90;;;;;;5079241;28;20425;-65
2023/08/08 07:28:37;;;;;;;1.60;0.80;;;17.30;99.90;;;;;;5080838;28;20212;-66
2023/08/08 07:31:03;;;;;;;3.60;1.40;;;17.80;99.90;;;;;;5076112;28;20275;-65
2023/08/08 07:33:28;;;;;;;2.63;0.80;;;18.00;99.90;;;;;;5064620;28;20526;-65
2023/08/08 07:35:54;;;;;;;1.83;0.70;;;18.20;99.90;;;;;;5088315;28;20240;-65
2023/08/08 07:38:20;;;;;;;2.83;0.90;;;18.50;99.00;;;;;;5071929;28;20192;-66
2023/08/08 07:40:45;;;;;;;1.70;0.80;;;19.60;97.80;;;;;;5071062;28;20692;-66
2023/08/08 07:43:11;;;;;;;2.30;1.03;;;20.60;96.30;;;;;;5071350;28;20187;-66
2023/08/08 07:45:37;;;;;;;3.70;1.10;;;20.90;94.40;;;;;;5071631;28;20190;-66
2023/08/08 07:48:03;;;;;;;1.50;0.67;;;21.60;93.20;;;;;;5083131;28;20183;-66
2023/08/08 07:50:29;;;;;;;2.57;1.20;;;21.90;92.70;;;;;;5099661;28;20191;-66
2023/08/08 07:52:55;;;;;;;3.60;0.77;;;22.50;91.80;;;;;;5083953;28;20423;-66
2023/08/08 07:55:20;;;;;;;1.40;0.70;;;22.40;91.10;;;;;;5102086;28;20182;-66
2023/08/08 07:57:46;;;;;;;1.80;0.87;;;22.60;90.80;;;;;;5089339;28;20191;-66
2023/08/08 08:00:12;;;;;;;1.80;0.70;;;22.70;90.20;;;;;;5091091;28;20251;-66
2023/08/08 08:02:39;;;;;;;3.10;0.90;;;23.00;88.50;;;;;;5101812;28;20202;-66
2023/08/08 08:05:07;;;;;;;1.87;0.90;;;23.30;88.00;;;;;;5095908;28;20856;-65
2023/08/08 08:07:34;;;;;;;1.83;0.73;;;23.00;84.80;;;;;;5081868;28;20419;-65
2023/08/08 08:09:59;;;;;;;1.80;0.80;;;23.10;85.30;;;;;;5077759;28;20557;-65
2023/08/08 08:12:25;;;;;;;1.70;0.90;;;22.60;85.90;;;;;;5085320;28;20505;-66
2023/08/08 08:14:51;;;;;;;2.37;1.03;;;22.20;87.10;;;;;;5079630;28;20181;-65
2023/08/08 08:17:16;;;;;;;2.90;1.07;;;21.90;87.30;;;;;;5077939;28;20257;-65
2023/08/08 08:19:42;;;;;;;1.87;0.77;;;21.70;88.80;;;;;;5071093;28;20211;-66
2023/08/08 08:22:08;;;;;;;3.00;1.00;;;21.80;90.10;;;;;;5071062;28;20187;-66
2023/08/08 08:24:33;;;;;;;4.90;1.00;;;22.30;88.70;;;;;;5077060;28;20530;-66
2023/08/08 08:26:59;;;;;;;3.20;0.90;;;22.30;87.60;;;;;;5070284;28;20186;-65
2023/08/08 08:29:25;;;;;;;1.90;0.90;;;22.10;87.50;;;;;;5088237;28;20654;-65
2023/08/08 08:31:50;;;;;;;6.30;0.93;;;21.60;89.30;;;;;;5091451;28;20183;-65
2023/08/08 08:34:16;;;;;;;3.90;1.50;;;21.40;88.30;;;;;;5091914;28;20184;-65
2023/08/08 08:36:41;;;;;;;2.10;1.00;;;21.20;90.10;;;;;;5090334;28;20540;-65
2023/08/08 08:39:07;;;;;;;2.37;1.00;;;21.30;90.40;;;;;;5093481;28;20176;-65
2023/08/08 08:41:37;;;;;;;2.70;0.90;;;21.00;91.30;;;;;;5102015;28;20185;-65
2023/08/08 08:44:04;;;;;;;2.43;0.77;;;21.70;89.50;;;;;;5091882;28;20186;-65
2023/08/08 08:46:30;;;;;;;1.50;0.70;;;22.00;90.30;;;;;;5096856;28;20436;-67
2023/08/08 08:48:59;;;;;;;1.50;0.80;;;22.10;88.90;;;;;;5095313;28;20455;-68
2023/08/08 08:51:25;;;;;;;1.87;1.00;;;22.50;88.30;;;;;;5089768;28;20409;-66
2023/08/08 08:53:51;;;;;;;1.97;1.10;;;22.90;85.10;;;;;;5074169;28;20421;-65
2023/08/08 08:56:18;;;;;;;2.53;0.80;;;22.70;86.10;;;;;;5070820;28;20429;-65
2023/08/08 08:58:44;;;;;;;1.60;0.70;;;22.80;87.40;;;;;;5074226;28;20455;-74
2023/08/08 09:01:10;;;;;;;2.07;0.87;;;22.80;85.20;;;;;;5089979;28;20912;-83
2023/08/08 09:03:39;;;;;;;7.23;1.00;;;22.00;85.30;;;;;;5082543;28;20657;-80
2023/08/08 09:06:05;;;;;;;1.90;1.00;;;21.50;87.20;;;;;;5071484;28;20476;-76
2023/08/08 09:08:31;;;;;;;2.23;0.60;;;20.60;90.70;;;;;;5097421;28;20449;-82
2023/08/08 09:10:57;;;;;;;1.90;0.77;;;20.60;89.60;;;;;;5086322;28;20554;-64
2023/08/08 09:13:25;;;;;;;4.50;0.93;;;20.40;90.40;;;;;;5090789;28;20172;-64
2023/08/08 09:15:52;;;;;;;9.17;0.90;;;20.50;91.20;;;;;;5099099;28;20186;-64
2023/08/08 09:18:17;;;;;;;2.50;1.10;;;20.60;90.40;;;;;;5085800;28;21379;-64
2023/08/08 09:20:49;;;;;;;5.60;0.90;;;20.90;90.50;;;;;;5093682;28;20429;-64
2023/08/08 09:23:15;;;;;;;3.30;1.10;;;21.50;88.00;;;;;;5093811;28;20175;-64
2023/08/08 09:25:41;;;;;;;2.03;0.73;;;21.70;86.70;;;;;;5096870;28;20462;-64
2023/08/08 09:28:06;;;;;;;4.47;1.30;;;21.50;89.30;;;;;;5082480;28;20183;-64
2023/08/08 09:30:32;;;;;;;1.30;0.60;;;21.50;87.30;;;;;;5090521;28;20176;-64
2023/08/08 09:32:59;;;;;;;2.83;0.80;;;21.30;88.60;;;;;;5070565;28;20185;-64
2023/08/08 09:35:25;;;;;;;2.17;0.90;;;21.30;89.50;;;;;;5074352;28;20275;-64
2023/08/08 09:37:55;;;;;;;11.43;1.70;;;21.10;88.80;;;;;;5075351;28;20563;-64
2023/08/08 09:40:22;;;;;;;1.40;0.60;;;20.90;89.60;;;;;;5103443;28;20175;-64
2023/08/08 09:42:50;;;;;;;3.23;1.33;;;21.50;88.20;;;;;;5090890;28;20458;-64
2023/08/08 09:45:16;;;;;;;3.57;0.77;;;21.80;87.30;;;;;;5095657;28;20906;-64
2023/08/08 09:47:42;;;;;;;1.87;0.70;;;21.80;87.90;;;;;;5095205;28;20497;-65
2023/08/08 09:50:08;;;;;;;3.10;0.97;;;21.80;86.60;;;;;;5090247;28;20373;-65
2023/08/08 09:52:34;;;;;;;3.50;1.07;;;21.80;87.40;;;;;;5082278;28;20185;-64
2023/08/08 09:55:01;;;;;;;1.50;0.70;;;21.40;89.70;;;;;;5083486;28;20536;-64
2023/08/08 09:57:27;;;;;;;1.60;0.70;;;21.30;87.60;;;;;;5081656;28;20418;-64
2023/08/08 09:59:53;;;;;;;3.83;1.00;;;21.10;89.90;;;;;;5077163;28;20431;-64
2023/08/08 10:02:19;;;;;;;5.67;0.73;;;21.30;88.00;;;;;;5076449;28;20461;-64
2023/08/08 10:04:48;;;;;;;1.40;0.70;;;21.80;87.30;;;;;;5091315;28;20190;-65
2023/08/08 10:07:14;;;;;;;2.10;0.70;;;22.50;85.50;;;;;;5097234;28;20225;-64
2023/08/08 10:09:41;;;;;;;3.73;1.00;;;22.10;84.40;;;;;;5083678;28;20463;-64
2023/08/08 10:12:08;;;;;;;1.53;0.70;;;21.80;86.70;;;;;;5076873;28;20777;-64
2023/08/08 10:14:37;;;;;;;1.97;1.17;;;21.50;87.70;;;;;;5079061;28;20422;-64
2023/08/08 10:17:05;;;;;;;2.10;0.80;;;20.90;90.30;;;;;;5088538;28;21009;-64
2023/08/08 10:19:30;;;;;;;2.70;0.80;;;20.80;90.40;;;;;;5098521;28;20440;-64
2023/08/08 10:22:14;;;;;;;4.80;1.20;;;20.60;86.60;;;;;;5091510;28;20905;-64
2023/08/08 10:24:40;;;;;;;2.33;0.80;;;20.60;84.80;;;;;;5087036;28;20573;-64
2023/08/08 10:27:06;;;;;;;2.37;0.87;;;20.60;84.00;;;;;;5088248;28;20416;-64
2023/08/08 10:29:33;;;;;;;2.17;0.97;;;20.70;87.60;;;;;;5092622;28;20240;-64
2023/08/08 10:32:00;;;;;;;2.20;0.73;;;20.70;85.30;;;;;;5073143;28;20185;-64
2023/08/08 10:34:39;;;;;;;5.03;1.10;;;20.50;84.00;;;;;;5077932;28;20468;-64
2023/08/08 10:37:08;;;;;;;1.63;0.70;;;20.60;84.20;;;;;;5073148;28;20897;-64
2023/08/08 10:39:34;;;;;;;1.60;0.80;;;20.60;86.30;;;;;;5079677;28;20419;-64
2023/08/08 10:42:03;;;;;;;2.10;0.80;;;20.50;83.90;;;;;;5078906;28;20465;-64
2023/08/08 10:44:29;;;;;;;2.90;0.93;;;20.60;83.10;;;;;;5072850;28;20181;-64
2023/08/08 10:46:56;;;;;;;4.70;1.63;;;21.00;82.10;;;;;;5087053;28;20968;-64
2023/08/08 10:49:22;;;;;;;1.60;0.67;;;21.10;80.60;;;;;;5093304;28;20211;-64
2023/08/08 10:51:49;;;;;;;2.13;0.80;;;21.20;81.10;;;;;;5079227;28;20465;-64
2023/08/08 10:54:16;;;;;;;3.83;1.40;;;21.10;83.30;;;;;;5093484;28;20421;-64
2023/08/08 10:56:48;;;;;;;1.50;0.83;;;21.40;80.70;;;;;;5091469;28;20999;-64
2023/08/08 10:59:19;;;;;;;2.27;1.00;;;21.30;80.60;;;;;;5097662;28;20418;-64
2023/08/08 11:01:49;;;;;;;5.80;1.73;;;21.30;80.40;;;;;;5086636;28;20423;-64
2023/08/08 11:04:17;;;;;;;1.50;0.60;;;21.30;78.20;;;;;;5095081;28;20903;-64
2023/08/08 11:06:43;;;;;;;1.87;1.00;;;21.50;79.10;;;;;;5098013;28;20419;-64
2023/08/08 11:09:09;;;;;;;2.87;0.90;;;21.90;77.10;;;;;;5084085;28;20531;-64
2023/08/08 11:11:43;;;;;;;2.43;0.87;;;21.80;76.00;;;;;;5083851;28;20780;-64
2023/08/08 11:14:13;;;;;;;4.40;1.03;;;21.40;80.00;;;;;;5075349;28;20418;-64
2023/08/08 11:16:40;;;;;;;1.73;0.80;;;21.30;84.50;;;;;;5080151;28;20415;-64
2023/08/08 11:19:05;;;;;;;3.30;0.90;;;21.40;83.40;;;;;;5078011;28;20806;-64
2023/08/08 11:21:38;;;;;;;1.43;0.70;;;21.50;82.70;;;;;;5093381;28;20426;-64
2023/08/08 11:24:06;;;;;;;1.80;0.87;;;21.70;79.10;;;;;;5091619;28;20183;-64
2023/08/08 11:26:32;;;;;;;3.27;1.30;;;21.60;80.00;;;;;;5100850;28;20501;-64
2023/08/08 11:29:02;;;;;;;1.40;0.67;;;21.80;78.90;;;;;;5076666;28;20511;-64
2023/08/08 11:31:28;;;;;;;1.83;0.80;;;21.90;82.10;;;;;;5084858;28;20525;-64
2023/08/08 11:33:55;;;;;;;1.80;0.87;;;22.00;76.60;;;;;;5087845;28;21198;-65
2023/08/08 11:36:22;;;;;;;2.47;1.07;;;22.20;75.70;;;;;;5088414;28;20477;-63
2023/08/08 11:38:49;;;;;;;2.73;1.00;;;22.10;76.00;;;;;;5097377;28;20461;-64
2023/08/08 11:41:17;;;;;;;2.07;0.70;;;22.10;78.40;;;;;;5083540;28;20460;-64
2023/08/08 11:43:44;;;;;;;1.90;0.83;;;22.10;77.50;;;;;;5084496;28;20476;-64
2023/08/08 11:46:12;;;;;;;4.40;0.80;;;22.10;77.60;;;;;;5079301;28;20501;-64
2023/08/08 11:48:38;;;;;;;1.63;0.67;;;22.50;78.80;;;;;;5091754;28;20449;-64
2023/08/08 11:51:08;;;;;;;2.37;1.17;;;22.50;74.50;;;;;;5092513;28;20432;-64
2023/08/08 11:53:35;;;;;;;2.60;0.90;;;22.60;76.20;;;;;;5058572;28;20188;-64
2023/08/08 11:56:03;;;;;;;2.43;0.90;;;22.60;76.20;;;;;;5080226;28;20422;-64
2023/08/08 11:58:30;;;;;;;5.63;0.73;;;22.70;73.40;;;;;;5075278;28;20494;-64
2023/08/08 12:00:57;;;;;;;2.37;1.17;;;22.90;74.70;;;;;;5082876;28;20418;-64
2023/08/08 12:03:24;;;;;;;1.60;0.80;;;22.90;72.30;;;;;;5088584;28;20513;-64
2023/08/08 12:05:51;;;;;;;1.80;1.00;;;22.90;71.60;;;;;;5090535;28;20419;-64
2023/08/08 12:08:20;;;;;;;2.73;1.10;;;23.00;73.30;;;;;;5089911;28;20548;-64
2023/08/08 12:10:54;;;;;;;2.27;0.83;;;22.80;74.10;;;;;;5094370;28;20412;-64
2023/08/08 12:13:25;;;;;;;1.60;0.80;;;22.70;75.10;;;;;;5069908;28;20427;-64
2023/08/08 12:15:52;;;;;;;2.63;1.10;;;22.70;75.30;;;;;;5101641;28;20932;-64
2023/08/08 12:18:19;;;;;;;5.73;0.83;;;23.00;74.60;;;;;;5082960;28;20432;-64
2023/08/08 12:20:45;;;;;;;6.37;1.40;;;22.90;74.00;;;;;;5099258;28;20512;-64
2023/08/08 12:23:11;;;;;;;5.57;1.60;;;22.80;76.10;;;;;;5080032;28;20863;-64
2023/08/08 12:25:37;;;;;;;5.23;1.40;;;22.70;72.90;;;;;;5096973;28;20947;-64
2023/08/08 12:28:04;;;;;;;1.60;0.83;;;22.10;73.50;;;;;;5086477;28;20429;-64
2023/08/08 12:30:30;;;;;;;3.00;1.07;;;22.10;76.10;;;;;;5102943;28;20425;-64
2023/08/08 12:32:56;;;;;;;2.83;1.10;;;22.10;75.30;;;;;;5080180;28;20423;-64
2023/08/08 12:35:21;;;;;;;2.20;0.90;;;22.20;75.50;;;;;;5088237;28;20216;-64
2023/08/08 12:37:47;;;;;;;4.37;1.37;;;22.10;77.00;;;;;;5091774;28;20211;-64
2023/08/08 12:40:13;;;;;;;47.90;1.53;;;22.40;77.20;;;;;;5071170;28;20189;-64
2023/08/08 12:42:39;;;;;;;2.40;1.10;;;22.50;75.40;;;;;;5071475;28;20290;-64